• Join FlightAware (Why Join?)
  • Login
  • US Flag 
08:02AM EDT


 

Airport Tracker/Info


-or-


 

Live Flight TrackerFlight Track Log ✈ USC105 ✈ 02-Jul-2013 ✈ KDPA - KYIP

Flight Track Log - Related Links

Times and Time Zones

All times are in EDT time to prevent confusion due to time zone crossing. See the USC105 flight status page for this flight to view local times or setup timezone preferences in your user account.

Time Position Orientation Groundspeed Altitude Reporting Facility
EDT Latitude Longitude Course Direction KTS MPH feet Rate Location/Type
05:44AM 41.8667 -88.2500 143° Southeast 119 137 1,700  Level Chicago TRACON
05:45AM 41.8500 -88.2333 143° Southeast 111 128 3,000 1,200 Climbing Chicago TRACON
05:46AM 41.8356 -88.2139 135° Southeast 114 131 3,700 1,080 Climbing Chicago Center
05:47AM 41.8394 -88.1814 81° East 94 108 4,800 1,140 Climbing Chicago Center
05:48AM 41.8439 -88.1475 80° East 92 106 6,000 1,080 Climbing Chicago Center
05:49AM 41.8475 -88.1119 82° East 94 108 7,000 480 Climbing Chicago Center
05:50AM 41.8533 -88.0642 81° East 117 135 7,000  Level Chicago Center
05:51AM 41.8581 -88.0058 84° East 148 170 7,000  Level Chicago Center
05:52AM 41.8633 -87.9511 83° East 150 173 7,000  Level Chicago Center
05:53AM 41.8681 -87.8933 84° East 154 177 7,000  Level Chicago Center
05:54AM 41.8742 -87.8333 82° East 160 184 7,000  Level Chicago Center
05:55AM 41.8794 -87.7733 83° East 162 186 7,000  Level Chicago Center
05:56AM 41.8856 -87.7125 82° East 164 189 7,000  Level Chicago Center
05:57AM 41.8914 -87.6522 83° East 166 191 7,000  Level Chicago Center
05:58AM 41.8992 -87.5806 82° East 164 189 7,000  Level Chicago Center
05:59AM 41.9050 -87.5217 82° East 161 185 7,000  Level Chicago Center
06:00AM 41.9117 -87.4608 82° East 165 190 7,000  Level Chicago Center
06:01AM 41.9175 -87.3992 83° East 166 191 7,000  Level Chicago Center
06:02AM 41.9244 -87.3397 81° East 163 188 7,000  Level Chicago Center
06:03AM 41.9306 -87.2797 82° East 163 188 7,000  Level Chicago Center
06:04AM 41.9358 -87.2186 83° East 164 189 7,000  Level Chicago Center
06:05AM 41.9422 -87.1575 82° East 165 190 7,000  Level Chicago Center
06:06AM 41.9492 -87.0975 81° East 165 190 7,000  Level Chicago Center
06:07AM 41.9550 -87.0353 83° East 167 192 7,000  Level Chicago Center
06:08AM 41.9589 -86.9742 85° East 165 190 7,000  Level Chicago Center
06:09AM 41.9656 -86.9133 82° East 165 190 7,000  Level Chicago Center
06:10AM 41.9725 -86.8514 81° East 168 193 7,000  Level Chicago Center
06:11AM 41.9769 -86.7892 84° East 167 192 7,000  Level Chicago Center
06:12AM 41.9833 -86.7272 82° East 168 193 7,000  Level Chicago Center
06:13AM 41.9894 -86.6633 83° East 168 193 7,000  Level Chicago Center
06:14AM 41.9942 -86.6008 84° East 169 194 7,000  Level Chicago Center
06:15AM 42.0000 -86.5383 83° East 169 194 7,000  Level Chicago Center
06:16AM 42.0058 -86.4758 83° East 169 194 7,000 -240 Level Chicago Center
06:17AM 42.0106 -86.4106 84° East 174 200 6,600 -600 Descending Chicago Center
06:18AM 42.0200 -86.3275 81° East 184 212 5,800 -720 Descending Chicago Center
06:19AM 42.0256 -86.2542 84° East 195 224 5,200 -420 Descending Chicago Center
06:20AM 42.0333 -86.1825 82° East 196 226 5,000 -120 Descending Chicago Center
06:21AM 42.0394 -86.1147 83° East 186 214 5,000  Level Chicago Center
06:22AM 42.0447 -86.0486 84° East 179 206 5,000  Level Chicago Center
06:23AM 42.0500 -85.9822 84° East 179 206 5,000  Level Chicago Center
06:24AM 42.0564 -85.9161 83° East 178 205 5,000  Level Chicago Center
06:25AM 42.0619 -85.8500 84° East 178 205 5,000  Level Chicago Center
06:26AM 42.0678 -85.7839 83° East 178 205 5,000  Level Chicago Center
06:27AM 42.0731 -85.7183 84° East 178 205 5,000  Level Chicago Center
06:28AM 42.0786 -85.6531 83° East 176 203 5,000  Level Chicago Center
06:29AM 42.0836 -85.5889 84° East 174 200 5,000  Level Chicago Center
06:30AM 42.0903 -85.5250 82° East 173 199 5,000  Level Chicago Center
06:31AM 42.0942 -85.4617 85° East 171 197 5,000  Level Chicago Center
06:32AM 42.0997 -85.3956 84° East 175 201 5,000  Level Chicago Center
06:33AM 42.1058 -85.3297 83° East 177 204 5,000  Level Chicago Center
06:34AM 42.1108 -85.2628 84° East 178 205 5,000  Level Chicago Center
06:35AM 42.1164 -85.1964 84° East 178 205 5,000  Level Chicago Center
06:36AM 42.1222 -85.1300 83° East 178 205 5,000  Level Chicago Center
06:37AM 42.1267 -85.0633 85° East 179 206 5,000  Level Chicago Center
06:38AM 42.1317 -84.9983 84° East 175 201 5,000  Level Chicago Center
06:39AM 42.1367 -84.9319 84° East 177 204 5,000  Level Chicago Center
06:40AM 42.1428 -84.8656 83° East 178 205 5,000  Level Chicago Center
06:41AM 42.1478 -84.8000 84° East 177 204 5,000  Level Chicago Center
06:42AM 42.1525 -84.7353 84° East 175 201 5,000  Level Chicago Center
06:43AM 42.1572 -84.6686 85° East 176 203 5,000  Level Chicago Center
06:44AM 42.1642 -84.5903 83° East 176 203 5,000  Level Chicago Center
06:45AM 42.1675 -84.5250 86° East 175 201 5,000  Level Chicago Center
06:46AM 42.1711 -84.4686 85° East 177 204 5,000  Level Chicago Center
06:47AM 42.1764 -84.4025 84° East 178 205 5,000  Level Chicago Center
06:48AM 42.1819 -84.3439 83° East 177 204 5,000  Level Cleveland Center
06:49AM 42.1858 -84.2825 85° East 176 203 5,000  Level Cleveland Center
06:50AM 42.1881 -84.2181 87° East 178 205 5,000  Level Cleveland Center
06:51AM 42.1964 -84.1514 80° East 175 201 5,000 -360 Level Cleveland Center
06:52AM 42.2008 -84.0758 85° East 187 215 4,300 -660 Descending Cleveland Center